Time;durP1;ratioP1;P1;durP2;ratioP2;P2;SDS_P1;SDS_P2;PMS_P1;PMS_P2;Temp;Humidity;BMP_temperature;BMP_pressure;BME280_temperature;BME280_humidity;BME280_pressure;Samples;Min_cycle;Max_cycle;Signal;HPM_P1;HPM_P2
2023/05/21 00:01:32;;;;;;;18.83;13.37;;;;;;;;;;7356666;19;20221;-75
2023/05/21 00:03:58;;;;;;;17.23;13.10;;;;;;;;;;7359018;19;20545;-75
2023/05/21 00:06:23;;;;;;;20.20;13.27;;;;;;;;;;7364461;19;19995;-76
2023/05/21 00:08:48;;;;;;;21.55;14.73;;;;;;;;;;7361082;19;20368;-76
2023/05/21 00:11:13;;;;;;;21.87;15.83;;;;;;;;;;7361290;19;20638;-76
2023/05/21 00:13:39;;;;;;;20.17;14.10;;;;;;;;;;7358431;19;20002;-75
2023/05/21 00:16:04;;;;;;;20.00;14.83;;;;;;;;;;7362540;19;20006;-76
2023/05/21 00:18:31;;;;;;;19.50;13.43;;;;;;;;;;7363943;19;20027;-75
2023/05/21 00:20:56;;;;;;;18.60;13.05;;;;;;;;;;7358543;19;20622;-76
2023/05/21 00:23:21;;;;;;;22.05;14.90;;;;;;;;;;7360263;19;20114;-75
2023/05/21 00:25:46;;;;;;;18.50;13.60;;;;;;;;;;7348820;19;20023;-76
2023/05/21 00:28:12;;;;;;;21.83;14.32;;;;;;;;;;7361355;19;20384;-75
2023/05/21 00:30:37;;;;;;;19.97;15.37;;;;;;;;;;7364391;19;20015;-75
2023/05/21 00:33:02;;;;;;;20.50;16.37;;;;;;;;;;7358018;19;20271;-76
2023/05/21 00:35:28;;;;;;;26.52;16.08;;;;;;;;;;7359884;19;20048;-76
2023/05/21 00:37:53;;;;;;;22.08;15.82;;;;;;;;;;7358076;19;20514;-76
2023/05/21 00:40:18;;;;;;;19.60;14.73;;;;;;;;;;7369193;19;20028;-75
2023/05/21 00:42:46;;;;;;;19.45;14.90;;;;;;;;;;7362570;19;20432;-75
2023/05/21 00:45:13;;;;;;;21.55;15.60;;;;;;;;;;7371534;19;20378;-75
2023/05/21 00:47:40;;;;;;;20.70;16.58;;;;;;;;;;7370467;19;20440;-76
2023/05/21 00:50:06;;;;;;;20.45;15.35;;;;;;;;;;7361777;19;20034;-75
2023/05/21 00:52:32;;;;;;;21.90;15.13;;;;;;;;;;7372071;19;20318;-76
2023/05/21 00:54:57;;;;;;;25.98;16.17;;;;;;;;;;7365988;19;20009;-76
2023/05/21 00:57:24;;;;;;;26.07;17.37;;;;;;;;;;7336926;19;20014;-76
2023/05/21 00:59:50;;;;;;;22.63;16.20;;;;;;;;;;7363791;19;20381;-75
2023/05/21 01:02:16;;;;;;;22.83;15.77;;;;;;;;;;7357804;19;20114;-76
2023/05/21 01:04:42;;;;;;;23.38;17.00;;;;;;;;;;7369704;19;20014;-75
2023/05/21 01:07:08;;;;;;;27.83;18.27;;;;;;;;;;7358969;19;20025;-75
2023/05/21 01:09:33;;;;;;;27.98;20.60;;;;;;;;;;7367417;19;20449;-75
2023/05/21 01:11:59;;;;;;;27.30;18.83;;;;;;;;;;7356195;19;20002;-75
2023/05/21 01:14:25;;;;;;;29.40;20.50;;;;;;;;;;7361022;19;20251;-75
2023/05/21 01:16:51;;;;;;;30.13;20.45;;;;;;;;;;7367227;19;20012;-75
2023/05/21 01:19:17;;;;;;;30.25;20.73;;;;;;;;;;7368481;19;20018;-75
2023/05/21 01:21:48;;;;;;;29.48;21.25;;;;;;;;;;7367176;19;20003;-75
2023/05/21 01:24:14;;;;;;;30.60;21.42;;;;;;;;;;7364873;19;20226;-75
2023/05/21 01:26:41;;;;;;;26.80;20.40;;;;;;;;;;7365446;19;20374;-75
2023/05/21 01:29:11;;;;;;;30.92;22.52;;;;;;;;;;7362655;19;20106;-75
2023/05/21 01:31:42;;;;;;;29.08;20.60;;;;;;;;;;7367853;19;20122;-76
2023/05/21 01:34:09;;;;;;;27.10;20.70;;;;;;;;;;7358190;19;20082;-75
2023/05/21 01:36:39;;;;;;;30.98;20.65;;;;;;;;;;7366254;19;20297;-75
2023/05/21 01:39:15;;;;;;;27.90;20.90;;;;;;;;;;7367059;19;20002;-75
2023/05/21 01:41:42;;;;;;;32.20;21.17;;;;;;;;;;7366215;19;19994;-75
2023/05/21 01:44:08;;;;;;;31.80;20.52;;;;;;;;;;7359441;19;20495;-75
2023/05/21 01:46:35;;;;;;;27.33;21.02;;;;;;;;;;7364947;19;20363;-75
2023/05/21 01:49:01;;;;;;;30.02;22.52;;;;;;;;;;7366451;19;20014;-75
2023/05/21 01:51:27;;;;;;;28.08;20.90;;;;;;;;;;7369981;19;20022;-75
2023/05/21 01:53:52;;;;;;;34.80;19.90;;;;;;;;;;7359780;19;20009;-75
2023/05/21 01:56:17;;;;;;;30.23;20.83;;;;;;;;;;7367854;19;20031;-75
2023/05/21 01:58:42;;;;;;;31.83;22.13;;;;;;;;;;7281770;19;20284;-74
2023/05/21 02:01:08;;;;;;;31.23;21.23;;;;;;;;;;7263843;19;20558;-75
2023/05/21 02:03:33;;;;;;;31.88;22.50;;;;;;;;;;7276344;19;20040;-75
2023/05/21 02:05:58;;;;;;;28.07;20.40;;;;;;;;;;7274007;19;20007;-75
2023/05/21 02:08:24;;;;;;;27.43;21.07;;;;;;;;;;7282080;19;20493;-75
2023/05/21 02:10:50;;;;;;;28.50;20.75;;;;;;;;;;7271658;19;20599;-76
2023/05/21 02:13:19;;;;;;;30.23;21.38;;;;;;;;;;7272063;19;20300;-75
2023/05/21 02:15:44;;;;;;;27.83;21.45;;;;;;;;;;7275756;19;20314;-75
2023/05/21 02:18:10;;;;;;;29.90;21.73;;;;;;;;;;7281154;19;20939;-75
2023/05/21 02:20:35;;;;;;;31.40;21.98;;;;;;;;;;7279080;19;20269;-75
2023/05/21 02:23:00;;;;;;;28.38;20.48;;;;;;;;;;7269823;19;20097;-75
2023/05/21 02:25:25;;;;;;;35.23;22.77;;;;;;;;;;7276920;19;20013;-75
2023/05/21 02:27:55;;;;;;;33.07;22.73;;;;;;;;;;7267514;19;20640;-75
2023/05/21 02:30:20;;;;;;;30.80;21.08;;;;;;;;;;7273726;19;20359;-75
2023/05/21 02:32:47;;;;;;;31.37;20.97;;;;;;;;;;7273619;19;20022;-75
2023/05/21 02:35:12;;;;;;;30.25;21.35;;;;;;;;;;7273697;19;20906;-75
2023/05/21 02:37:39;;;;;;;29.23;21.42;;;;;;;;;;7277730;19;20322;-75
2023/05/21 02:40:05;;;;;;;28.63;20.23;;;;;;;;;;7275130;19;20756;-75
2023/05/21 02:42:30;;;;;;;31.13;21.48;;;;;;;;;;7272171;19;20071;-75
2023/05/21 02:44:55;;;;;;;31.27;22.23;;;;;;;;;;7271471;19;20003;-74
2023/05/21 02:47:22;;;;;;;30.83;21.50;;;;;;;;;;7278263;19;20005;-75
2023/05/21 02:49:48;;;;;;;32.63;21.55;;;;;;;;;;7275136;19;20508;-74
2023/05/21 02:52:13;;;;;;;29.67;20.50;;;;;;;;;;7273919;19;19999;-75
2023/05/21 02:54:38;;;;;;;28.27;21.45;;;;;;;;;;7269206;19;20002;-75
2023/05/21 02:57:03;;;;;;;29.33;20.90;;;;;;;;;;7285478;19;20002;-75
2023/05/21 02:59:29;;;;;;;29.48;22.17;;;;;;;;;;7364719;19;20639;-75
2023/05/21 03:01:54;;;;;;;29.88;21.98;;;;;;;;;;7354882;19;20002;-75
2023/05/21 03:04:22;;;;;;;29.73;22.10;;;;;;;;;;7364523;19;20397;-75
2023/05/21 03:06:54;;;;;;;30.30;22.10;;;;;;;;;;7364725;19;20039;-75
2023/05/21 03:09:22;;;;;;;30.27;22.58;;;;;;;;;;7365785;19;20010;-75
2023/05/21 03:11:47;;;;;;;32.80;22.58;;;;;;;;;;7352455;19;20106;-75
2023/05/21 03:14:13;;;;;;;29.27;19.33;;;;;;;;;;7360963;19;20408;-75
2023/05/21 03:16:40;;;;;;;30.88;21.95;;;;;;;;;;7364385;19;20003;-75
2023/05/21 03:19:05;;;;;;;27.60;20.92;;;;;;;;;;7362761;19;20114;-75
2023/05/21 03:21:32;;;;;;;32.47;24.05;;;;;;;;;;7360928;19;20015;-75
2023/05/21 03:23:57;;;;;;;29.25;20.40;;;;;;;;;;7362327;19;20038;-76
2023/05/21 03:26:28;;;;;;;34.83;22.40;;;;;;;;;;7363567;19;19999;-75
2023/05/21 03:28:53;;;;;;;30.55;22.02;;;;;;;;;;7356903;19;20179;-74
2023/05/21 03:31:19;;;;;;;27.42;20.48;;;;;;;;;;7363567;19;20345;-75
2023/05/21 03:33:44;;;;;;;28.17;20.73;;;;;;;;;;7364899;19;20162;-75
2023/05/21 03:36:10;;;;;;;29.27;20.70;;;;;;;;;;7356490;19;19995;-75
2023/05/21 03:38:35;;;;;;;32.13;23.43;;;;;;;;;;7364987;19;20019;-75
2023/05/21 03:41:01;;;;;;;29.88;21.75;;;;;;;;;;7359306;19;20223;-75
2023/05/21 03:43:26;;;;;;;32.22;22.08;;;;;;;;;;7363713;19;20364;-75
2023/05/21 03:45:53;;;;;;;30.05;21.70;;;;;;;;;;7358790;19;20009;-75
2023/05/21 03:48:18;;;;;;;34.28;20.92;;;;;;;;;;7361791;19;20135;-75
2023/05/21 03:50:43;;;;;;;32.35;20.75;;;;;;;;;;7362988;19;20136;-75
2023/05/21 03:53:09;;;;;;;30.58;21.35;;;;;;;;;;7360327;19;20006;-75
2023/05/21 03:55:34;;;;;;;28.80;20.48;;;;;;;;;;7356731;19;19995;-75
2023/05/21 03:58:00;;;;;;;28.17;19.57;;;;;;;;;;7356168;19;20126;-75
2023/05/21 04:00:25;;;;;;;29.53;20.17;;;;;;;;;;7363171;19;20664;-75
2023/05/21 04:02:50;;;;;;;27.60;19.23;;;;;;;;;;7360388;19;19999;-75
2023/05/21 04:05:15;;;;;;;29.67;21.33;;;;;;;;;;7360568;19;19998;-75
2023/05/21 04:07:41;;;;;;;29.10;18.93;;;;;;;;;;7364974;19;20025;-75
2023/05/21 04:10:06;;;;;;;25.17;18.40;;;;;;;;;;7357973;19;20477;-75
2023/05/21 04:12:31;;;;;;;28.25;20.38;;;;;;;;;;7351523;19;20006;-74
2023/05/21 04:14:56;;;;;;;28.47;19.20;;;;;;;;;;7361026;19;20400;-75
2023/05/21 04:17:22;;;;;;;31.77;18.60;;;;;;;;;;7365077;19;20247;-76
2023/05/21 04:19:47;;;;;;;34.37;23.73;;;;;;;;;;7363819;19;20425;-75
2023/05/21 04:22:12;;;;;;;29.10;20.10;;;;;;;;;;7367635;19;20003;-75
2023/05/21 04:24:37;;;;;;;28.97;21.17;;;;;;;;;;7368983;19;20537;-76
2023/05/21 04:27:04;;;;;;;35.30;24.77;;;;;;;;;;7360687;19;20319;-75
2023/05/21 04:29:29;;;;;;;36.55;25.27;;;;;;;;;;7365211;19;20536;-76
2023/05/21 04:31:55;;;;;;;32.53;22.80;;;;;;;;;;7368822;19;20320;-75
2023/05/21 04:34:20;;;;;;;35.30;23.77;;;;;;;;;;7360907;19;20018;-75
2023/05/21 04:36:45;;;;;;;34.60;24.60;;;;;;;;;;7366614;19;20230;-76
2023/05/21 04:39:11;;;;;;;34.80;23.75;;;;;;;;;;7366548;19;20286;-75
2023/05/21 04:41:37;;;;;;;33.92;23.45;;;;;;;;;;7365840;19;20304;-75
2023/05/21 04:44:02;;;;;;;33.40;24.60;;;;;;;;;;7363809;19;20059;-75
2023/05/21 04:46:27;;;;;;;35.45;23.25;;;;;;;;;;7362080;19;20014;-76
2023/05/21 04:48:53;;;;;;;32.07;23.53;;;;;;;;;;7369264;19;20367;-75
2023/05/21 04:51:19;;;;;;;34.40;23.58;;;;;;;;;;7365856;19;20392;-76
2023/05/21 04:53:45;;;;;;;31.95;23.92;;;;;;;;;;7364600;19;20494;-76
2023/05/21 04:56:10;;;;;;;32.42;22.95;;;;;;;;;;7367427;19;20062;-75
2023/05/21 04:58:35;;;;;;;29.92;22.25;;;;;;;;;;7363193;19;20312;-75
2023/05/21 05:01:02;;;;;;;33.90;23.37;;;;;;;;;;7368763;19;20625;-75
2023/05/21 05:03:28;;;;;;;27.80;20.92;;;;;;;;;;7365261;19;20641;-75
2023/05/21 05:05:53;;;;;;;31.75;22.58;;;;;;;;;;7370433;19;20026;-75
2023/05/21 05:08:19;;;;;;;30.77;21.47;;;;;;;;;;7361493;19;20325;-75
2023/05/21 05:10:44;;;;;;;29.83;21.87;;;;;;;;;;7365783;19;20014;-76
2023/05/21 05:13:09;;;;;;;36.25;24.42;;;;;;;;;;7360934;19;20286;-75
2023/05/21 05:15:34;;;;;;;33.83;23.17;;;;;;;;;;7369027;19;20002;-76
2023/05/21 05:18:00;;;;;;;31.42;21.77;;;;;;;;;;7365694;19;20022;-75
2023/05/21 05:20:25;;;;;;;30.15;22.83;;;;;;;;;;7361985;19;20090;-75
2023/05/21 05:22:50;;;;;;;30.95;21.70;;;;;;;;;;7360849;19;20026;-76
2023/05/21 05:25:16;;;;;;;29.23;20.90;;;;;;;;;;7351590;19;20067;-75
2023/05/21 05:27:41;;;;;;;31.13;21.07;;;;;;;;;;7364133;19;20004;-75
2023/05/21 05:30:06;;;;;;;29.13;20.92;;;;;;;;;;7360816;19;20263;-75
2023/05/21 05:32:32;;;;;;;32.65;22.77;;;;;;;;;;7368782;19;20014;-75
2023/05/21 05:34:57;;;;;;;31.40;23.27;;;;;;;;;;7355659;19;20840;-75
2023/05/21 05:37:22;;;;;;;29.43;21.50;;;;;;;;;;7364750;19;20110;-75
2023/05/21 05:39:47;;;;;;;27.47;19.97;;;;;;;;;;7368151;19;20552;-76
2023/05/21 05:42:12;;;;;;;29.33;20.90;;;;;;;;;;7361390;19;20232;-74
2023/05/21 05:44:37;;;;;;;31.92;20.48;;;;;;;;;;7363430;19;20432;-75
2023/05/21 05:47:07;;;;;;;32.00;21.70;;;;;;;;;;7370327;19;20002;-75
2023/05/21 05:49:33;;;;;;;32.33;21.13;;;;;;;;;;7351248;19;20141;-75
2023/05/21 05:51:58;;;;;;;28.65;20.60;;;;;;;;;;7368878;19;20099;-75
2023/05/21 05:54:23;;;;;;;27.58;19.10;;;;;;;;;;7364064;19;20025;-75
2023/05/21 05:56:48;;;;;;;28.60;20.43;;;;;;;;;;7366018;19;19995;-75
2023/05/21 05:59:13;;;;;;;30.65;20.17;;;;;;;;;;7363780;19;20392;-75
2023/05/21 06:01:38;;;;;;;31.52;21.50;;;;;;;;;;7364946;19;20003;-75
2023/05/21 06:04:04;;;;;;;31.33;20.70;;;;;;;;;;7368313;19;20011;-75
2023/05/21 06:06:30;;;;;;;29.70;19.60;;;;;;;;;;7358101;19;21003;-76
2023/05/21 06:08:55;;;;;;;27.52;20.33;;;;;;;;;;7363724;19;20567;-75
2023/05/21 06:11:21;;;;;;;32.30;21.70;;;;;;;;;;7365511;19;20036;-76
2023/05/21 06:13:46;;;;;;;30.63;21.50;;;;;;;;;;7360229;19;20006;-76
2023/05/21 06:16:12;;;;;;;29.23;19.60;;;;;;;;;;7359174;19;20001;-75
2023/05/21 06:18:37;;;;;;;29.77;20.83;;;;;;;;;;7366004;19;20007;-75
2023/05/21 06:21:02;;;;;;;32.60;21.50;;;;;;;;;;7368384;19;20092;-75
2023/05/21 06:23:28;;;;;;;30.77;21.30;;;;;;;;;;7362468;19;20069;-75
2023/05/21 06:25:53;;;;;;;29.50;20.10;;;;;;;;;;7363055;19;20107;-75
2023/05/21 06:28:18;;;;;;;33.77;21.30;;;;;;;;;;7361542;19;20607;-75
2023/05/21 06:30:43;;;;;;;27.60;20.17;;;;;;;;;;7364187;19;19999;-75
2023/05/21 06:33:08;;;;;;;28.73;19.40;;;;;;;;;;7357167;19;20365;-75
2023/05/21 06:35:35;;;;;;;27.65;19.60;;;;;;;;;;7362881;19;20347;-74
2023/05/21 06:38:01;;;;;;;30.73;20.67;;;;;;;;;;7362606;19;20022;-75
2023/05/21 06:40:26;;;;;;;29.70;19.38;;;;;;;;;;7356856;19;20002;-74
2023/05/21 06:42:51;;;;;;;28.35;19.13;;;;;;;;;;7354338;19;20022;-75
2023/05/21 06:45:16;;;;;;;25.23;18.48;;;;;;;;;;7363926;19;20328;-76
2023/05/21 06:47:41;;;;;;;28.20;19.50;;;;;;;;;;7366376;19;20010;-75
2023/05/21 06:50:07;;;;;;;32.40;19.33;;;;;;;;;;7365670;19;20262;-76
2023/05/21 06:52:32;;;;;;;28.63;19.92;;;;;;;;;;7357750;19;20013;-75
2023/05/21 06:54:57;;;;;;;29.20;18.85;;;;;;;;;;7342464;19;20023;-75
2023/05/21 06:57:22;;;;;;;27.13;19.67;;;;;;;;;;7360504;19;20030;-74
2023/05/21 06:59:48;;;;;;;29.23;20.40;;;;;;;;;;7364780;19;20062;-76
2023/05/21 07:02:13;;;;;;;27.25;18.85;;;;;;;;;;7365310;19;20003;-75
2023/05/21 07:04:38;;;;;;;26.33;17.77;;;;;;;;;;7359261;19;20030;-76
2023/05/21 07:07:03;;;;;;;27.20;18.93;;;;;;;;;;7357981;19;20840;-76
2023/05/21 07:09:29;;;;;;;25.50;18.70;;;;;;;;;;7361553;19;20764;-76
2023/05/21 07:11:54;;;;;;;24.75;17.30;;;;;;;;;;7361098;19;20024;-77
2023/05/21 07:14:19;;;;;;;24.25;17.30;;;;;;;;;;7344258;19;20525;-74
2023/05/21 07:16:45;;;;;;;27.55;17.92;;;;;;;;;;7365782;19;20522;-76
2023/05/21 07:19:10;;;;;;;24.97;17.93;;;;;;;;;;7354863;19;20392;-77
2023/05/21 07:21:35;;;;;;;24.55;17.45;;;;;;;;;;7329298;19;20641;-75
2023/05/21 07:24:00;;;;;;;24.37;17.37;;;;;;;;;;7359253;19;19995;-75
2023/05/21 07:26:26;;;;;;;25.87;18.13;;;;;;;;;;7340337;19;20281;-74
2023/05/21 07:28:51;;;;;;;23.65;16.92;;;;;;;;;;7353162;19;20074;-75
2023/05/21 07:31:16;;;;;;;27.27;18.23;;;;;;;;;;7364024;19;19998;-75
2023/05/21 07:33:41;;;;;;;25.80;16.80;;;;;;;;;;7355739;19;19998;-76
2023/05/21 07:36:06;;;;;;;30.13;17.60;;;;;;;;;;7354419;19;20332;-74
2023/05/21 07:38:31;;;;;;;25.90;16.90;;;;;;;;;;7359062;19;19998;-75
2023/05/21 07:40:57;;;;;;;24.00;16.87;;;;;;;;;;7345476;19;20235;-75
2023/05/21 07:43:22;;;;;;;27.25;17.55;;;;;;;;;;7351163;19;20454;-75
2023/05/21 07:45:48;;;;;;;22.90;16.63;;;;;;;;;;7363242;19;20010;-77
2023/05/21 07:48:13;;;;;;;22.58;16.48;;;;;;;;;;7363947;19;20006;-79
2023/05/21 07:50:38;;;;;;;26.05;16.45;;;;;;;;;;7357297;19;20475;-76
2023/05/21 07:53:03;;;;;;;21.40;15.73;;;;;;;;;;7361294;19;20023;-79
2023/05/21 07:55:29;;;;;;;24.58;15.35;;;;;;;;;;7357468;19;20026;-77
2023/05/21 07:57:55;;;;;;;22.80;15.37;;;;;;;;;;7342482;19;20104;-76
2023/05/21 08:00:22;;;;;;;22.33;15.57;;;;;;;;;;7348304;19;19995;-76
2023/05/21 08:02:47;;;;;;;24.38;15.68;;;;;;;;;;7358379;19;20455;-77
2023/05/21 08:05:12;;;;;;;21.70;15.13;;;;;;;;;;7351627;19;20029;-78
2023/05/21 08:07:37;;;;;;;19.57;13.93;;;;;;;;;;7345806;19;20032;-76
2023/05/21 08:10:03;;;;;;;18.08;13.68;;;;;;;;;;7351917;19;20776;-78
2023/05/21 08:12:28;;;;;;;23.48;14.80;;;;;;;;;;7355052;19;19994;-76
2023/05/21 08:14:53;;;;;;;21.83;14.33;;;;;;;;;;7359432;19;20125;-77
2023/05/21 08:17:18;;;;;;;21.40;14.25;;;;;;;;;;7353836;19;20455;-76
2023/05/21 08:19:44;;;;;;;21.23;14.27;;;;;;;;;;7356786;19;19999;-76
2023/05/21 08:22:09;;;;;;;21.23;14.20;;;;;;;;;;7358516;19;20460;-74
2023/05/21 08:24:34;;;;;;;22.02;15.25;;;;;;;;;;7330851;19;20021;-75
2023/05/21 08:27:00;;;;;;;21.85;13.43;;;;;;;;;;7351419;19;20058;-76
2023/05/21 08:29:25;;;;;;;22.47;13.97;;;;;;;;;;7354434;19;20064;-74
2023/05/21 08:31:50;;;;;;;20.40;14.37;;;;;;;;;;7346133;19;20640;-76
2023/05/21 08:34:17;;;;;;;21.93;13.93;;;;;;;;;;7352074;19;20258;-75
2023/05/21 08:36:44;;;;;;;20.52;13.13;;;;;;;;;;7350228;19;20003;-74
2023/05/21 08:39:10;;;;;;;21.50;13.32;;;;;;;;;;7352488;19;19999;-74
2023/05/21 08:41:35;;;;;;;21.47;13.40;;;;;;;;;;7343486;19;20079;-75
2023/05/21 08:44:01;;;;;;;22.75;12.90;;;;;;;;;;7357789;19;20033;-75
2023/05/21 08:46:30;;;;;;;19.35;13.07;;;;;;;;;;7358456;19;20010;-76
2023/05/21 08:48:56;;;;;;;21.98;14.25;;;;;;;;;;7361261;19;20015;-76
2023/05/21 08:51:21;;;;;;;20.13;13.95;;;;;;;;;;7356104;19;20003;-74
2023/05/21 08:53:48;;;;;;;22.17;13.63;;;;;;;;;;7349085;19;20006;-75
2023/05/21 08:56:15;;;;;;;19.25;13.20;;;;;;;;;;7344247;19;20290;-75
2023/05/21 08:58:42;;;;;;;19.38;13.45;;;;;;;;;;7337503;19;20435;-75
2023/05/21 09:01:08;;;;;;;17.85;13.02;;;;;;;;;;7366092;19;20013;-75
2023/05/21 09:03:38;;;;;;;23.08;13.90;;;;;;;;;;7360871;19;20558;-76
2023/05/21 09:06:03;;;;;;;20.30;12.43;;;;;;;;;;7361068;19;20202;-78
2023/05/21 09:08:33;;;;;;;18.80;12.00;;;;;;;;;;7361269;19;20058;-76
2023/05/21 09:10:59;;;;;;;17.92;12.80;;;;;;;;;;7367895;19;20467;-76
2023/05/21 09:13:26;;;;;;;17.98;11.68;;;;;;;;;;7358529;19;20493;-74
2023/05/21 09:15:51;;;;;;;17.42;12.52;;;;;;;;;;7353276;19;20003;-75
2023/05/21 09:18:16;;;;;;;15.43;11.52;;;;;;;;;;7356905;19;20061;-75
2023/05/21 09:20:42;;;;;;;20.00;12.60;;;;;;;;;;7336432;19;20012;-76
2023/05/21 09:23:15;;;;;;;17.52;12.20;;;;;;;;;;7363771;19;19998;-76
2023/05/21 09:25:40;;;;;;;20.42;12.60;;;;;;;;;;7332614;19;20026;-73
2023/05/21 09:28:12;;;;;;;16.30;11.45;;;;;;;;;;7325458;19;20009;-76
2023/05/21 09:30:44;;;;;;;18.60;12.75;;;;;;;;;;7352224;19;20102;-74
2023/05/21 09:33:10;;;;;;;17.63;12.32;;;;;;;;;;7361733;19;20027;-75
2023/05/21 09:35:36;;;;;;;18.17;12.18;;;;;;;;;;7340321;19;20628;-75
2023/05/21 09:38:07;;;;;;;15.73;11.95;;;;;;;;;;7354767;19;20011;-75
2023/05/21 09:40:33;;;;;;;15.98;12.10;;;;;;;;;;7362022;19;20400;-74
2023/05/21 09:42:58;;;;;;;16.13;11.25;;;;;;;;;;7340720;19;20414;-75
2023/05/21 09:45:24;;;;;;;15.13;11.10;;;;;;;;;;7351863;19;20441;-74
2023/05/21 09:47:51;;;;;;;16.92;11.38;;;;;;;;;;7349730;19;20231;-75
2023/05/21 09:50:17;;;;;;;17.48;12.07;;;;;;;;;;7354159;19;20010;-73
2023/05/21 09:52:42;;;;;;;17.63;11.75;;;;;;;;;;7362939;19;20463;-74
2023/05/21 09:55:11;;;;;;;18.15;11.90;;;;;;;;;;7359058;19;20122;-76
2023/05/21 09:57:43;;;;;;;16.27;11.68;;;;;;;;;;7343468;19;20002;-75
2023/05/21 10:00:16;;;;;;;18.08;11.80;;;;;;;;;;7349946;19;20247;-74
2023/05/21 10:02:43;;;;;;;18.50;11.70;;;;;;;;;;7349929;19;20003;-74
2023/05/21 10:05:09;;;;;;;16.48;11.35;;;;;;;;;;7358295;19;20006;-73
2023/05/21 10:07:34;;;;;;;14.57;11.20;;;;;;;;;;7346101;19;20029;-75
2023/05/21 10:10:02;;;;;;;20.35;11.55;;;;;;;;;;7357694;19;20036;-75
2023/05/21 10:12:29;;;;;;;15.30;11.65;;;;;;;;;;7359592;19;20106;-75
2023/05/21 10:14:58;;;;;;;16.30;11.68;;;;;;;;;;7360789;19;20086;-75
2023/05/21 10:17:24;;;;;;;16.80;10.77;;;;;;;;;;7354080;19;20010;-79
2023/05/21 10:19:50;;;;;;;15.32;11.10;;;;;;;;;;7356731;19;20390;-78
2023/05/21 10:22:15;;;;;;;15.93;11.65;;;;;;;;;;7354293;19;20007;-76
2023/05/21 10:24:41;;;;;;;15.27;10.45;;;;;;;;;;7360703;19;20002;-75
2023/05/21 10:27:07;;;;;;;16.27;11.10;;;;;;;;;;7347761;19;20037;-75
2023/05/21 10:29:32;;;;;;;15.67;11.33;;;;;;;;;;7338467;19;19999;-72
2023/05/21 10:31:59;;;;;;;14.43;10.27;;;;;;;;;;7327356;19;20263;-73
2023/05/21 10:34:24;;;;;;;13.75;10.18;;;;;;;;;;7352101;19;20069;-73
2023/05/21 10:36:51;;;;;;;16.98;11.80;;;;;;;;;;7341115;19;20868;-74
2023/05/21 10:39:18;;;;;;;19.65;10.70;;;;;;;;;;7350257;19;20067;-74
2023/05/21 10:42:04;;;;;;;14.27;10.73;;;;;;;;;;7369400;19;20000;-73
2023/05/21 10:44:39;;;;;;;15.52;10.88;;;;;;;;;;7356401;19;20001;-74
2023/05/21 10:47:15;;;;;;;19.73;11.23;;;;;;;;;;7351771;19;20026;-74
2023/05/21 10:49:53;;;;;;;14.73;11.05;;;;;;;;;;7332846;19;20584;-73
2023/05/21 10:52:37;;;;;;;14.80;10.38;;;;;;;;;;7355633;19;20717;-74
2023/05/21 10:55:22;;;;;;;14.70;10.18;;;;;;;;;;7360195;19;20152;-73
2023/05/21 10:58:06;;;;;;;13.80;9.00;;;;;;;;;;7351318;19;20023;-74
2023/05/21 11:00:31;;;;;;;14.75;10.07;;;;;;;;;;7363647;19;20030;-74
2023/05/21 11:02:57;;;;;;;13.85;10.02;;;;;;;;;;7360548;19;19998;-75
2023/05/21 11:05:49;;;;;;;14.55;9.27;;;;;;;;;;7362871;19;20411;-74
2023/05/21 11:08:21;;;;;;;15.02;9.75;;;;;;;;;;7344017;19;20021;-74
2023/05/21 11:10:50;;;;;;;15.10;9.23;;;;;;;;;;7349075;19;20011;-75
2023/05/21 11:13:15;;;;;;;12.82;9.32;;;;;;;;;;7345812;19;20582;-75
2023/05/21 11:15:56;;;;;;;16.85;9.65;;;;;;;;;;7352669;19;20010;-74
2023/05/21 11:18:21;;;;;;;14.35;8.82;;;;;;;;;;7328763;19;19998;-73
2023/05/21 11:20:50;;;;;;;13.27;8.95;;;;;;;;;;7325106;19;20065;-73
2023/05/21 11:23:15;;;;;;;14.75;9.15;;;;;;;;;;7327827;19;20003;-73
2023/05/21 11:25:40;;;;;;;14.13;9.53;;;;;;;;;;7332545;19;19994;-75
2023/05/21 11:28:08;;;;;;;12.27;9.07;;;;;;;;;;7342834;19;20219;-75
2023/05/21 11:30:33;;;;;;;15.57;9.68;;;;;;;;;;7336432;19;20428;-75
2023/05/21 11:33:09;;;;;;;13.45;9.52;;;;;;;;;;7353934;19;19998;-74
2023/05/21 11:35:43;;;;;;;13.13;8.98;;;;;;;;;;7347948;19;20001;-74
2023/05/21 11:38:08;;;;;;;13.88;9.82;;;;;;;;;;7337129;19;20015;-75
2023/05/21 11:40:34;;;;;;;14.60;9.10;;;;;;;;;;7357166;19;20045;-75
2023/05/21 11:42:59;;;;;;;13.43;9.68;;;;;;;;;;7347409;19;19997;-75
2023/05/21 11:45:29;;;;;;;13.93;9.77;;;;;;;;;;7345250;19;20058;-75
2023/05/21 11:47:55;;;;;;;13.70;9.15;;;;;;;;;;7341206;19;20013;-74
2023/05/21 11:50:20;;;;;;;14.35;9.45;;;;;;;;;;7340847;19;19998;-74
2023/05/21 11:52:45;;;;;;;15.32;10.15;;;;;;;;;;7347749;19;20014;-74
2023/05/21 11:55:11;;;;;;;14.63;9.93;;;;;;;;;;7351745;19;20006;-74
2023/05/21 11:57:36;;;;;;;14.02;9.38;;;;;;;;;;7333805;19;20482;-73
2023/05/21 12:00:09;;;;;;;15.52;9.63;;;;;;;;;;7349574;19;20025;-74
2023/05/21 12:02:34;;;;;;;13.88;10.27;;;;;;;;;;7343157;19;20070;-75
2023/05/21 12:05:00;;;;;;;14.87;10.07;;;;;;;;;;7350361;19;20460;-75
2023/05/21 12:07:27;;;;;;;13.50;9.77;;;;;;;;;;7349915;19;20412;-74
2023/05/21 12:09:52;;;;;;;15.25;10.00;;;;;;;;;;7353441;19;20268;-74
2023/05/21 12:12:18;;;;;;;12.48;9.65;;;;;;;;;;7330993;19;20007;-74
2023/05/21 12:14:45;;;;;;;15.02;9.48;;;;;;;;;;7350206;19;20585;-75
2023/05/21 12:17:12;;;;;;;13.38;9.60;;;;;;;;;;7361231;19;20082;-75
2023/05/21 12:19:37;;;;;;;14.63;9.57;;;;;;;;;;7362485;19;20021;-74
2023/05/21 12:22:03;;;;;;;12.95;9.57;;;;;;;;;;7353038;19;20399;-74
2023/05/21 12:24:29;;;;;;;14.23;10.25;;;;;;;;;;7339526;19;20304;-75
2023/05/21 12:26:57;;;;;;;13.00;9.18;;;;;;;;;;7350517;19;20530;-75
2023/05/21 12:29:22;;;;;;;12.55;9.02;;;;;;;;;;7354888;19;20002;-74
2023/05/21 12:31:48;;;;;;;14.13;8.43;;;;;;;;;;7350706;19;20020;-74
2023/05/21 12:34:14;;;;;;;15.07;9.20;;;;;;;;;;7358397;19;20515;-74
2023/05/21 12:36:44;;;;;;;14.10;9.98;;;;;;;;;;7366903;19;19994;-75
2023/05/21 12:39:10;;;;;;;15.05;10.18;;;;;;;;;;7363260;19;20415;-75
2023/05/21 12:41:35;;;;;;;13.60;9.57;;;;;;;;;;7366387;19;20014;-74
2023/05/21 12:44:00;;;;;;;14.93;9.83;;;;;;;;;;7354982;19;20011;-75
2023/05/21 12:46:26;;;;;;;13.20;9.33;;;;;;;;;;7352516;19;20762;-74
2023/05/21 12:48:51;;;;;;;14.50;10.18;;;;;;;;;;7362867;19;20324;-74
2023/05/21 12:51:17;;;;;;;15.68;9.85;;;;;;;;;;7364905;19;19998;-75
2023/05/21 12:53:42;;;;;;;13.67;9.20;;;;;;;;;;7365924;19;20015;-74
2023/05/21 12:56:10;;;;;;;14.93;10.10;;;;;;;;;;7362253;19;20231;-75
2023/05/21 12:58:37;;;;;;;15.32;9.07;;;;;;;;;;7365423;19;20534;-75
2023/05/21 13:01:04;;;;;;;14.05;9.07;;;;;;;;;;7364666;19;20082;-74
2023/05/21 13:03:30;;;;;;;16.52;9.25;;;;;;;;;;7369747;19;20028;-74
2023/05/21 13:05:57;;;;;;;12.95;8.70;;;;;;;;;;7355633;19;20014;-75
2023/05/21 13:08:22;;;;;;;12.68;8.43;;;;;;;;;;7369311;19;20066;-75
2023/05/21 13:10:47;;;;;;;13.63;8.90;;;;;;;;;;7362969;19;20091;-75
2023/05/21 13:13:12;;;;;;;11.87;8.53;;;;;;;;;;7360786;19;19995;-73
2023/05/21 13:15:37;;;;;;;12.20;8.77;;;;;;;;;;7346815;19;20028;-74
2023/05/21 13:18:03;;;;;;;14.57;9.13;;;;;;;;;;7359578;19;20206;-74
2023/05/21 13:20:28;;;;;;;12.60;9.10;;;;;;;;;;7362445;19;20232;-74
2023/05/21 13:22:53;;;;;;;15.27;8.98;;;;;;;;;;7361714;19;20198;-74
2023/05/21 13:25:20;;;;;;;14.13;9.18;;;;;;;;;;7363402;19;20015;-74
2023/05/21 13:27:45;;;;;;;13.85;9.15;;;;;;;;;;7351907;19;20843;-74
2023/05/21 13:30:11;;;;;;;12.63;9.20;;;;;;;;;;7341402;19;20006;-75
2023/05/21 13:32:36;;;;;;;14.35;9.20;;;;;;;;;;7359525;19;20010;-74
2023/05/21 13:35:02;;;;;;;15.90;9.30;;;;;;;;;;7345241;19;20468;-75
2023/05/21 13:37:27;;;;;;;11.48;8.98;;;;;;;;;;7364817;19;20311;-75
2023/05/21 13:39:52;;;;;;;14.87;9.33;;;;;;;;;;7365746;19;20015;-75
2023/05/21 13:42:18;;;;;;;19.07;9.37;;;;;;;;;;7338003;19;20115;-73
2023/05/21 13:44:43;;;;;;;15.65;9.23;;;;;;;;;;7364850;19;20503;-74
2023/05/21 13:47:09;;;;;;;10.80;8.13;;;;;;;;;;7353476;19;20029;-74
2023/05/21 13:49:35;;;;;;;13.15;8.50;;;;;;;;;;7358257;19;20010;-75
2023/05/21 13:52:00;;;;;;;14.00;8.45;;;;;;;;;;7361349;19;20002;-75
2023/05/21 13:54:25;;;;;;;14.33;8.63;;;;;;;;;;7355401;19;20012;-74
2023/05/21 13:56:51;;;;;;;12.65;8.05;;;;;;;;;;7346869;19;20250;-74
2023/05/21 13:59:16;;;;;;;14.60;9.07;;;;;;;;;;7361657;19;19998;-75
2023/05/21 14:01:44;;;;;;;17.83;9.65;;;;;;;;;;7355474;19;20113;-75
2023/05/21 14:04:09;;;;;;;12.35;8.25;;;;;;;;;;7360224;19;20022;-75
2023/05/21 14:06:34;;;;;;;13.80;9.40;;;;;;;;;;7353133;19;20011;-74
2023/05/21 14:09:00;;;;;;;16.20;9.85;;;;;;;;;;7348114;19;20025;-74
2023/05/21 14:11:26;;;;;;;18.67;9.23;;;;;;;;;;7361719;19;20348;-75
2023/05/21 14:13:52;;;;;;;14.20;8.63;;;;;;;;;;7357462;19;20553;-74